sensor_id;sensor_type;location;lat;lon;timestamp;P1;durP1;ratioP1;P2;durP2;ratioP2
21564;SDS011;10943;48.738;9.320;2022-10-31T00:01:33;14.77;;;7.88;;
21564;SDS011;10943;48.738;9.320;2022-10-31T00:04:04;18.17;;;7.45;;
21564;SDS011;10943;48.738;9.320;2022-10-31T00:06:32;14.45;;;7.38;;
21564;SDS011;10943;48.738;9.320;2022-10-31T00:08:59;15.35;;;7.47;;
21564;SDS011;10943;48.738;9.320;2022-10-31T00:11:30;12.45;;;7.03;;
21564;SDS011;10943;48.738;9.320;2022-10-31T00:13:58;16.40;;;7.32;;
21564;SDS011;10943;48.738;9.320;2022-10-31T00:16:26;14.18;;;8.52;;
21564;SDS011;10943;48.738;9.320;2022-10-31T00:18:55;16.85;;;8.13;;
21564;SDS011;10943;48.738;9.320;2022-10-31T00:21:28;19.17;;;8.35;;
21564;SDS011;10943;48.738;9.320;2022-10-31T00:23:57;18.27;;;8.73;;
21564;SDS011;10943;48.738;9.320;2022-10-31T00:26:27;20.60;;;9.57;;
21564;SDS011;10943;48.738;9.320;2022-10-31T00:28:57;15.85;;;9.23;;
21564;SDS011;10943;48.738;9.320;2022-10-31T00:31:26;21.38;;;8.95;;
21564;SDS011;10943;48.738;9.320;2022-10-31T00:33:55;20.15;;;9.35;;
21564;SDS011;10943;48.738;9.320;2022-10-31T00:36:25;17.65;;;8.40;;
21564;SDS011;10943;48.738;9.320;2022-10-31T00:38:55;15.90;;;8.52;;
21564;SDS011;10943;48.738;9.320;2022-10-31T00:41:25;16.40;;;8.30;;
21564;SDS011;10943;48.738;9.320;2022-10-31T00:43:52;13.23;;;7.70;;
21564;SDS011;10943;48.738;9.320;2022-10-31T00:46:19;15.80;;;8.07;;
21564;SDS011;10943;48.738;9.320;2022-10-31T00:48:49;17.20;;;8.55;;
21564;SDS011;10943;48.738;9.320;2022-10-31T00:51:17;22.05;;;8.90;;
21564;SDS011;10943;48.738;9.320;2022-10-31T00:53:44;17.15;;;7.53;;
21564;SDS011;10943;48.738;9.320;2022-10-31T00:56:12;18.52;;;7.88;;
21564;SDS011;10943;48.738;9.320;2022-10-31T00:58:39;15.85;;;8.30;;
21564;SDS011;10943;48.738;9.320;2022-10-31T01:01:07;15.30;;;7.45;;
21564;SDS011;10943;48.738;9.320;2022-10-31T01:03:35;20.50;;;7.45;;
21564;SDS011;10943;48.738;9.320;2022-10-31T01:06:09;14.30;;;7.20;;
21564;SDS011;10943;48.738;9.320;2022-10-31T01:08:39;15.75;;;7.68;;
21564;SDS011;10943;48.738;9.320;2022-10-31T01:11:11;19.08;;;7.80;;
21564;SDS011;10943;48.738;9.320;2022-10-31T01:13:52;13.88;;;7.28;;
21564;SDS011;10943;48.738;9.320;2022-10-31T01:16:21;14.65;;;7.55;;
21564;SDS011;10943;48.738;9.320;2022-10-31T01:18:51;12.18;;;7.18;;
21564;SDS011;10943;48.738;9.320;2022-10-31T01:21:20;14.68;;;8.07;;
21564;SDS011;10943;48.738;9.320;2022-10-31T01:23:57;15.75;;;8.00;;
21564;SDS011;10943;48.738;9.320;2022-10-31T01:26:25;16.42;;;7.82;;
21564;SDS011;10943;48.738;9.320;2022-10-31T01:28:58;13.73;;;7.55;;
21564;SDS011;10943;48.738;9.320;2022-10-31T01:31:36;13.02;;;7.80;;
21564;SDS011;10943;48.738;9.320;2022-10-31T01:34:05;13.05;;;6.90;;
21564;SDS011;10943;48.738;9.320;2022-10-31T01:36:35;16.08;;;7.45;;
21564;SDS011;10943;48.738;9.320;2022-10-31T01:39:08;13.52;;;6.78;;
21564;SDS011;10943;48.738;9.320;2022-10-31T01:41:42;18.27;;;7.38;;
21564;SDS011;10943;48.738;9.320;2022-10-31T01:46:53;16.23;;;6.75;;
21564;SDS011;10943;48.738;9.320;2022-10-31T01:49:35;15.48;;;6.57;;
21564;SDS011;10943;48.738;9.320;2022-10-31T01:52:29;12.82;;;6.60;;
21564;SDS011;10943;48.738;9.320;2022-10-31T01:55:20;15.30;;;7.25;;
21564;SDS011;10943;48.738;9.320;2022-10-31T01:57:57;14.05;;;7.22;;
21564;SDS011;10943;48.738;9.320;2022-10-31T02:00:31;19.25;;;7.32;;
21564;SDS011;10943;48.738;9.320;2022-10-31T02:02:59;13.50;;;6.55;;
21564;SDS011;10943;48.738;9.320;2022-10-31T02:05:27;15.45;;;6.80;;
21564;SDS011;10943;48.738;9.320;2022-10-31T02:10:31;12.68;;;6.80;;
21564;SDS011;10943;48.738;9.320;2022-10-31T02:13:01;13.52;;;6.93;;
21564;SDS011;10943;48.738;9.320;2022-10-31T02:15:41;15.55;;;7.43;;
21564;SDS011;10943;48.738;9.320;2022-10-31T02:18:13;16.17;;;8.70;;
21564;SDS011;10943;48.738;9.320;2022-10-31T02:29:57;15.38;;;7.13;;
21564;SDS011;10943;48.738;9.320;2022-10-31T02:32:45;17.10;;;7.25;;
21564;SDS011;10943;48.738;9.320;2022-10-31T02:39:05;15.10;;;7.47;;
21564;SDS011;10943;48.738;9.320;2022-10-31T02:44:41;16.00;;;7.00;;
21564;SDS011;10943;48.738;9.320;2022-10-31T02:47:53;18.98;;;7.35;;
21564;SDS011;10943;48.738;9.320;2022-10-31T02:50:30;16.50;;;6.95;;
21564;SDS011;10943;48.738;9.320;2022-10-31T02:53:05;16.80;;;7.07;;
21564;SDS011;10943;48.738;9.320;2022-10-31T02:58:05;12.05;;;6.63;;
21564;SDS011;10943;48.738;9.320;2022-10-31T03:00:47;15.48;;;6.70;;
21564;SDS011;10943;48.738;9.320;2022-10-31T03:03:53;18.58;;;7.25;;
21564;SDS011;10943;48.738;9.320;2022-10-31T03:07:11;15.52;;;6.97;;
21564;SDS011;10943;48.738;9.320;2022-10-31T03:10:05;16.45;;;7.85;;
21564;SDS011;10943;48.738;9.320;2022-10-31T03:16:15;13.57;;;7.20;;
21564;SDS011;10943;48.738;9.320;2022-10-31T03:19:23;18.80;;;7.93;;
21564;SDS011;10943;48.738;9.320;2022-10-31T03:24:48;15.48;;;7.70;;
21564;SDS011;10943;48.738;9.320;2022-10-31T03:27:23;14.65;;;6.78;;
21564;SDS011;10943;48.738;9.320;2022-10-31T03:29:54;15.73;;;7.32;;
21564;SDS011;10943;48.738;9.320;2022-10-31T03:32:34;17.05;;;7.70;;
21564;SDS011;10943;48.738;9.320;2022-10-31T03:35:22;18.38;;;7.50;;
21564;SDS011;10943;48.738;9.320;2022-10-31T03:37:54;16.67;;;7.60;;
21564;SDS011;10943;48.738;9.320;2022-10-31T03:40:27;12.32;;;7.18;;
21564;SDS011;10943;48.738;9.320;2022-10-31T03:42:59;16.02;;;6.75;;
21564;SDS011;10943;48.738;9.320;2022-10-31T03:48:29;12.48;;;6.70;;
21564;SDS011;10943;48.738;9.320;2022-10-31T03:56:45;16.42;;;7.35;;
21564;SDS011;10943;48.738;9.320;2022-10-31T03:59:37;18.25;;;7.20;;
21564;SDS011;10943;48.738;9.320;2022-10-31T04:02:15;15.15;;;6.65;;
21564;SDS011;10943;48.738;9.320;2022-10-31T04:04:47;13.48;;;6.47;;
21564;SDS011;10943;48.738;9.320;2022-10-31T04:07:17;16.60;;;6.50;;
21564;SDS011;10943;48.738;9.320;2022-10-31T04:09:49;11.85;;;6.35;;
21564;SDS011;10943;48.738;9.320;2022-10-31T04:12:20;14.82;;;7.20;;
21564;SDS011;10943;48.738;9.320;2022-10-31T04:15:08;14.45;;;7.45;;
21564;SDS011;10943;48.738;9.320;2022-10-31T04:17:40;13.93;;;6.78;;
21564;SDS011;10943;48.738;9.320;2022-10-31T04:20:15;11.88;;;6.72;;
21564;SDS011;10943;48.738;9.320;2022-10-31T04:22:44;15.82;;;7.30;;
21564;SDS011;10943;48.738;9.320;2022-10-31T04:25:11;11.50;;;6.68;;
21564;SDS011;10943;48.738;9.320;2022-10-31T04:27:39;15.77;;;7.43;;
21564;SDS011;10943;48.738;9.320;2022-10-31T04:30:08;12.82;;;6.70;;
21564;SDS011;10943;48.738;9.320;2022-10-31T04:32:38;14.07;;;7.03;;
21564;SDS011;10943;48.738;9.320;2022-10-31T04:35:06;16.58;;;7.03;;
21564;SDS011;10943;48.738;9.320;2022-10-31T04:37:34;17.13;;;7.28;;
21564;SDS011;10943;48.738;9.320;2022-10-31T04:40:02;13.20;;;7.03;;
21564;SDS011;10943;48.738;9.320;2022-10-31T04:42:37;13.02;;;6.53;;
21564;SDS011;10943;48.738;9.320;2022-10-31T04:45:05;14.30;;;7.10;;
21564;SDS011;10943;48.738;9.320;2022-10-31T04:47:34;12.85;;;7.35;;
21564;SDS011;10943;48.738;9.320;2022-10-31T04:50:02;13.05;;;7.03;;
21564;SDS011;10943;48.738;9.320;2022-10-31T04:52:32;17.83;;;7.22;;
21564;SDS011;10943;48.738;9.320;2022-10-31T04:55:07;17.67;;;7.55;;
21564;SDS011;10943;48.738;9.320;2022-10-31T04:57:54;12.07;;;6.70;;
21564;SDS011;10943;48.738;9.320;2022-10-31T05:00:24;16.17;;;8.00;;
21564;SDS011;10943;48.738;9.320;2022-10-31T05:02:52;18.05;;;7.60;;
21564;SDS011;10943;48.738;9.320;2022-10-31T05:05:27;14.68;;;7.15;;
21564;SDS011;10943;48.738;9.320;2022-10-31T05:08:01;11.73;;;6.47;;
21564;SDS011;10943;48.738;9.320;2022-10-31T05:10:31;16.02;;;7.45;;
21564;SDS011;10943;48.738;9.320;2022-10-31T05:13:01;16.95;;;7.93;;
21564;SDS011;10943;48.738;9.320;2022-10-31T05:15:54;14.18;;;7.05;;
21564;SDS011;10943;48.738;9.320;2022-10-31T05:18:40;17.98;;;7.55;;
21564;SDS011;10943;48.738;9.320;2022-10-31T05:21:26;14.50;;;6.88;;
21564;SDS011;10943;48.738;9.320;2022-10-31T05:23:59;13.52;;;7.05;;
21564;SDS011;10943;48.738;9.320;2022-10-31T05:26:27;16.23;;;7.57;;
21564;SDS011;10943;48.738;9.320;2022-10-31T05:28:55;12.52;;;7.00;;
21564;SDS011;10943;48.738;9.320;2022-10-31T05:31:22;18.25;;;7.60;;
21564;SDS011;10943;48.738;9.320;2022-10-31T05:33:52;15.73;;;8.00;;
21564;SDS011;10943;48.738;9.320;2022-10-31T05:36:19;11.70;;;7.00;;
21564;SDS011;10943;48.738;9.320;2022-10-31T05:38:56;13.80;;;7.13;;
21564;SDS011;10943;48.738;9.320;2022-10-31T05:41:50;17.20;;;7.00;;
21564;SDS011;10943;48.738;9.320;2022-10-31T05:44:24;15.82;;;7.60;;
21564;SDS011;10943;48.738;9.320;2022-10-31T05:47:10;12.40;;;7.30;;
21564;SDS011;10943;48.738;9.320;2022-10-31T05:49:56;15.70;;;7.53;;
21564;SDS011;10943;48.738;9.320;2022-10-31T05:52:23;12.65;;;7.22;;
21564;SDS011;10943;48.738;9.320;2022-10-31T05:54:59;18.13;;;7.68;;
21564;SDS011;10943;48.738;9.320;2022-10-31T05:57:28;14.27;;;7.28;;
21564;SDS011;10943;48.738;9.320;2022-10-31T06:00:00;13.38;;;6.90;;
21564;SDS011;10943;48.738;9.320;2022-10-31T06:02:32;15.85;;;7.57;;
21564;SDS011;10943;48.738;9.320;2022-10-31T06:05:19;16.05;;;7.03;;
21564;SDS011;10943;48.738;9.320;2022-10-31T06:07:47;11.98;;;7.00;;
21564;SDS011;10943;48.738;9.320;2022-10-31T06:10:14;14.95;;;7.57;;
21564;SDS011;10943;48.738;9.320;2022-10-31T06:12:44;17.58;;;7.30;;
21564;SDS011;10943;48.738;9.320;2022-10-31T06:15:28;15.20;;;7.45;;
21564;SDS011;10943;48.738;9.320;2022-10-31T06:17:57;12.45;;;7.63;;
21564;SDS011;10943;48.738;9.320;2022-10-31T06:20:36;16.02;;;7.53;;
21564;SDS011;10943;48.738;9.320;2022-10-31T06:23:04;15.30;;;7.68;;
21564;SDS011;10943;48.738;9.320;2022-10-31T06:25:33;15.23;;;7.93;;
21564;SDS011;10943;48.738;9.320;2022-10-31T06:28:03;14.52;;;7.72;;
21564;SDS011;10943;48.738;9.320;2022-10-31T06:31:09;15.93;;;7.93;;
21564;SDS011;10943;48.738;9.320;2022-10-31T06:33:36;13.57;;;7.22;;
21564;SDS011;10943;48.738;9.320;2022-10-31T06:36:07;17.33;;;7.90;;
21564;SDS011;10943;48.738;9.320;2022-10-31T06:38:36;12.55;;;6.95;;
21564;SDS011;10943;48.738;9.320;2022-10-31T06:41:06;14.80;;;7.30;;
21564;SDS011;10943;48.738;9.320;2022-10-31T06:43:41;13.15;;;7.32;;
21564;SDS011;10943;48.738;9.320;2022-10-31T06:46:21;15.02;;;7.53;;
21564;SDS011;10943;48.738;9.320;2022-10-31T06:49:03;17.30;;;8.52;;
21564;SDS011;10943;48.738;9.320;2022-10-31T06:51:52;18.00;;;8.45;;
21564;SDS011;10943;48.738;9.320;2022-10-31T06:54:20;15.38;;;8.65;;
21564;SDS011;10943;48.738;9.320;2022-10-31T06:56:48;15.35;;;8.23;;
21564;SDS011;10943;48.738;9.320;2022-10-31T06:59:16;16.95;;;7.88;;
21564;SDS011;10943;48.738;9.320;2022-10-31T07:02:04;15.02;;;7.88;;
21564;SDS011;10943;48.738;9.320;2022-10-31T07:04:32;15.88;;;7.70;;
21564;SDS011;10943;48.738;9.320;2022-10-31T07:07:00;17.02;;;7.68;;
21564;SDS011;10943;48.738;9.320;2022-10-31T07:09:28;14.77;;;8.00;;
21564;SDS011;10943;48.738;9.320;2022-10-31T07:12:00;16.13;;;7.85;;
21564;SDS011;10943;48.738;9.320;2022-10-31T07:14:35;11.93;;;7.40;;
21564;SDS011;10943;48.738;9.320;2022-10-31T07:17:03;12.75;;;7.05;;
21564;SDS011;10943;48.738;9.320;2022-10-31T07:19:33;12.07;;;7.03;;
21564;SDS011;10943;48.738;9.320;2022-10-31T07:22:02;17.55;;;7.25;;
21564;SDS011;10943;48.738;9.320;2022-10-31T07:24:29;16.83;;;7.03;;
21564;SDS011;10943;48.738;9.320;2022-10-31T07:27:16;13.30;;;7.03;;
21564;SDS011;10943;48.738;9.320;2022-10-31T07:29:45;14.98;;;7.13;;
21564;SDS011;10943;48.738;9.320;2022-10-31T07:32:14;16.88;;;7.57;;
21564;SDS011;10943;48.738;9.320;2022-10-31T07:34:49;15.32;;;7.43;;
21564;SDS011;10943;48.738;9.320;2022-10-31T07:37:29;12.80;;;7.35;;
21564;SDS011;10943;48.738;9.320;2022-10-31T07:40:51;14.68;;;6.78;;
21564;SDS011;10943;48.738;9.320;2022-10-31T07:43:19;13.65;;;6.78;;
21564;SDS011;10943;48.738;9.320;2022-10-31T07:46:10;15.75;;;6.93;;
21564;SDS011;10943;48.738;9.320;2022-10-31T07:49:07;16.10;;;7.10;;
21564;SDS011;10943;48.738;9.320;2022-10-31T07:52:12;13.23;;;6.65;;
21564;SDS011;10943;48.738;9.320;2022-10-31T07:55:01;14.93;;;6.75;;
21564;SDS011;10943;48.738;9.320;2022-10-31T07:57:34;13.55;;;6.65;;
21564;SDS011;10943;48.738;9.320;2022-10-31T08:00:04;12.57;;;6.07;;
21564;SDS011;10943;48.738;9.320;2022-10-31T08:02:42;14.07;;;5.90;;
21564;SDS011;10943;48.738;9.320;2022-10-31T08:05:35;13.55;;;5.97;;
21564;SDS011;10943;48.738;9.320;2022-10-31T08:08:39;11.00;;;6.10;;
21564;SDS011;10943;48.738;9.320;2022-10-31T08:11:08;13.65;;;5.60;;
21564;SDS011;10943;48.738;9.320;2022-10-31T08:13:38;12.02;;;5.85;;
21564;SDS011;10943;48.738;9.320;2022-10-31T08:16:26;12.93;;;6.15;;
21564;SDS011;10943;48.738;9.320;2022-10-31T08:19:00;13.93;;;6.28;;
21564;SDS011;10943;48.738;9.320;2022-10-31T08:21:29;12.32;;;6.65;;
21564;SDS011;10943;48.738;9.320;2022-10-31T08:24:04;14.27;;;6.43;;
21564;SDS011;10943;48.738;9.320;2022-10-31T08:26:33;13.70;;;6.40;;
21564;SDS011;10943;48.738;9.320;2022-10-31T08:29:08;14.00;;;5.63;;
21564;SDS011;10943;48.738;9.320;2022-10-31T08:31:37;16.17;;;5.68;;
21564;SDS011;10943;48.738;9.320;2022-10-31T08:34:33;10.00;;;5.43;;
21564;SDS011;10943;48.738;9.320;2022-10-31T08:37:20;10.07;;;4.72;;
21564;SDS011;10943;48.738;9.320;2022-10-31T08:39:52;14.02;;;5.50;;
21564;SDS011;10943;48.738;9.320;2022-10-31T08:42:20;10.52;;;4.65;;
21564;SDS011;10943;48.738;9.320;2022-10-31T08:45:13;10.95;;;5.20;;
21564;SDS011;10943;48.738;9.320;2022-10-31T08:47:40;10.65;;;5.28;;
21564;SDS011;10943;48.738;9.320;2022-10-31T08:50:09;10.18;;;4.60;;
21564;SDS011;10943;48.738;9.320;2022-10-31T08:52:36;9.88;;;5.07;;
21564;SDS011;10943;48.738;9.320;2022-10-31T08:55:25;11.32;;;4.60;;
21564;SDS011;10943;48.738;9.320;2022-10-31T08:58:06;14.70;;;4.50;;
21564;SDS011;10943;48.738;9.320;2022-10-31T09:00:47;13.15;;;4.38;;
21564;SDS011;10943;48.738;9.320;2022-10-31T09:03:22;11.75;;;4.20;;
21564;SDS011;10943;48.738;9.320;2022-10-31T09:05:54;10.35;;;4.40;;
21564;SDS011;10943;48.738;9.320;2022-10-31T09:08:30;8.30;;;4.00;;
21564;SDS011;10943;48.738;9.320;2022-10-31T09:11:01;11.02;;;4.20;;
21564;SDS011;10943;48.738;9.320;2022-10-31T09:13:52;8.40;;;4.18;;
21564;SDS011;10943;48.738;9.320;2022-10-31T09:16:25;10.40;;;3.95;;
21564;SDS011;10943;48.738;9.320;2022-10-31T09:18:53;9.93;;;4.07;;
21564;SDS011;10943;48.738;9.320;2022-10-31T09:21:21;11.02;;;3.83;;
21564;SDS011;10943;48.738;9.320;2022-10-31T09:23:55;9.45;;;4.03;;
21564;SDS011;10943;48.738;9.320;2022-10-31T09:26:23;7.50;;;3.63;;
21564;SDS011;10943;48.738;9.320;2022-10-31T09:29:03;11.52;;;3.88;;
21564;SDS011;10943;48.738;9.320;2022-10-31T09:31:32;10.43;;;4.03;;
21564;SDS011;10943;48.738;9.320;2022-10-31T09:34:23;9.18;;;4.35;;
21564;SDS011;10943;48.738;9.320;2022-10-31T09:37:02;8.02;;;3.85;;
21564;SDS011;10943;48.738;9.320;2022-10-31T09:39:33;10.65;;;4.25;;
21564;SDS011;10943;48.738;9.320;2022-10-31T09:45:23;12.18;;;3.75;;
21564;SDS011;10943;48.738;9.320;2022-10-31T09:51:10;10.80;;;4.30;;
21564;SDS011;10943;48.738;9.320;2022-10-31T09:53:56;11.65;;;4.50;;
21564;SDS011;10943;48.738;9.320;2022-10-31T09:57:05;7.60;;;3.70;;
21564;SDS011;10943;48.738;9.320;2022-10-31T09:59:45;13.05;;;4.20;;
21564;SDS011;10943;48.738;9.320;2022-10-31T10:05:10;9.10;;;4.40;;
21564;SDS011;10943;48.738;9.320;2022-10-31T10:17:36;9.02;;;3.55;;
21564;SDS011;10943;48.738;9.320;2022-10-31T10:26:50;8.45;;;3.80;;
21564;SDS011;10943;48.738;9.320;2022-10-31T10:30:02;8.43;;;3.78;;
21564;SDS011;10943;48.738;9.320;2022-10-31T10:38:11;11.40;;;4.30;;
21564;SDS011;10943;48.738;9.320;2022-10-31T10:41:03;8.43;;;3.95;;
21564;SDS011;10943;48.738;9.320;2022-10-31T10:43:42;9.63;;;3.78;;
21564;SDS011;10943;48.738;9.320;2022-10-31T10:49:40;10.75;;;3.90;;
21564;SDS011;10943;48.738;9.320;2022-10-31T10:52:40;9.07;;;4.25;;
21564;SDS011;10943;48.738;9.320;2022-10-31T10:58:23;14.10;;;4.65;;
21564;SDS011;10943;48.738;9.320;2022-10-31T11:00:50;9.77;;;4.32;;
21564;SDS011;10943;48.738;9.320;2022-10-31T11:03:22;10.32;;;4.10;;
21564;SDS011;10943;48.738;9.320;2022-10-31T11:05:53;13.70;;;4.50;;
21564;SDS011;10943;48.738;9.320;2022-10-31T11:13:45;9.57;;;4.47;;
21564;SDS011;10943;48.738;9.320;2022-10-31T11:16:42;11.40;;;4.55;;
21564;SDS011;10943;48.738;9.320;2022-10-31T11:21:53;11.75;;;5.30;;
21564;SDS011;10943;48.738;9.320;2022-10-31T11:24:36;11.60;;;4.43;;
21564;SDS011;10943;48.738;9.320;2022-10-31T11:27:15;14.50;;;4.78;;
21564;SDS011;10943;48.738;9.320;2022-10-31T11:29:49;12.48;;;4.60;;
21564;SDS011;10943;48.738;9.320;2022-10-31T11:32:26;10.43;;;4.80;;
21564;SDS011;10943;48.738;9.320;2022-10-31T11:34:57;11.68;;;4.38;;
21564;SDS011;10943;48.738;9.320;2022-10-31T11:37:40;12.93;;;4.80;;
21564;SDS011;10943;48.738;9.320;2022-10-31T11:40:14;14.23;;;4.70;;
21564;SDS011;10943;48.738;9.320;2022-10-31T11:42:47;8.35;;;4.10;;
21564;SDS011;10943;48.738;9.320;2022-10-31T11:45:33;11.05;;;4.25;;
21564;SDS011;10943;48.738;9.320;2022-10-31T11:48:12;10.45;;;4.30;;
21564;SDS011;10943;48.738;9.320;2022-10-31T11:50:59;12.32;;;4.75;;
21564;SDS011;10943;48.738;9.320;2022-10-31T11:53:28;15.07;;;4.50;;
21564;SDS011;10943;48.738;9.320;2022-10-31T11:58:37;8.93;;;4.57;;
21564;SDS011;10943;48.738;9.320;2022-10-31T12:01:04;11.68;;;4.80;;
21564;SDS011;10943;48.738;9.320;2022-10-31T12:03:42;10.23;;;4.63;;
21564;SDS011;10943;48.738;9.320;2022-10-31T12:06:36;13.00;;;4.32;;
21564;SDS011;10943;48.738;9.320;2022-10-31T12:09:15;10.07;;;4.15;;
21564;SDS011;10943;48.738;9.320;2022-10-31T12:14:42;11.55;;;4.45;;
21564;SDS011;10943;48.738;9.320;2022-10-31T12:17:57;13.65;;;4.20;;
21564;SDS011;10943;48.738;9.320;2022-10-31T12:27:33;10.95;;;4.30;;
21564;SDS011;10943;48.738;9.320;2022-10-31T12:30:19;11.05;;;4.25;;
21564;SDS011;10943;48.738;9.320;2022-10-31T12:36:40;11.15;;;5.15;;
21564;SDS011;10943;48.738;9.320;2022-10-31T12:39:37;11.18;;;4.47;;
21564;SDS011;10943;48.738;9.320;2022-10-31T12:42:36;10.98;;;4.47;;
21564;SDS011;10943;48.738;9.320;2022-10-31T12:49:32;19.88;;;4.75;;
21564;SDS011;10943;48.738;9.320;2022-10-31T12:58:36;10.00;;;4.57;;
21564;SDS011;10943;48.738;9.320;2022-10-31T13:01:13;10.90;;;4.53;;
21564;SDS011;10943;48.738;9.320;2022-10-31T13:10:31;8.65;;;4.60;;
21564;SDS011;10943;48.738;9.320;2022-10-31T13:13:26;11.25;;;4.07;;
21564;SDS011;10943;48.738;9.320;2022-10-31T13:16:08;9.10;;;4.30;;
21564;SDS011;10943;48.738;9.320;2022-10-31T13:19:02;11.00;;;4.95;;
21564;SDS011;10943;48.738;9.320;2022-10-31T13:27:58;16.33;;;5.35;;
21564;SDS011;10943;48.738;9.320;2022-10-31T13:30:39;11.75;;;4.93;;
21564;SDS011;10943;48.738;9.320;2022-10-31T13:33:29;15.00;;;5.20;;
21564;SDS011;10943;48.738;9.320;2022-10-31T13:40:34;11.18;;;5.13;;
21564;SDS011;10943;48.738;9.320;2022-10-31T13:42:59;12.10;;;5.53;;
21564;SDS011;10943;48.738;9.320;2022-10-31T13:46:23;11.32;;;4.72;;
21564;SDS011;10943;48.738;9.320;2022-10-31T13:49:04;10.43;;;4.85;;
21564;SDS011;10943;48.738;9.320;2022-10-31T13:54:38;14.95;;;5.00;;
21564;SDS011;10943;48.738;9.320;2022-10-31T13:57:27;10.57;;;4.32;;
21564;SDS011;10943;48.738;9.320;2022-10-31T14:02:47;13.63;;;5.25;;
21564;SDS011;10943;48.738;9.320;2022-10-31T14:05:23;16.23;;;4.97;;
21564;SDS011;10943;48.738;9.320;2022-10-31T14:07:58;13.13;;;5.45;;
21564;SDS011;10943;48.738;9.320;2022-10-31T14:10:31;12.60;;;5.10;;
21564;SDS011;10943;48.738;9.320;2022-10-31T14:13:07;9.60;;;4.30;;
21564;SDS011;10943;48.738;9.320;2022-10-31T14:15:52;11.48;;;5.10;;
21564;SDS011;10943;48.738;9.320;2022-10-31T14:18:34;16.05;;;5.07;;
21564;SDS011;10943;48.738;9.320;2022-10-31T14:23:50;13.88;;;5.00;;
21564;SDS011;10943;48.738;9.320;2022-10-31T14:28:56;15.55;;;4.85;;
21564;SDS011;10943;48.738;9.320;2022-10-31T14:31:53;12.25;;;4.63;;
21564;SDS011;10943;48.738;9.320;2022-10-31T14:34:41;9.27;;;4.80;;
21564;SDS011;10943;48.738;9.320;2022-10-31T14:52:30;13.40;;;5.20;;
21564;SDS011;10943;48.738;9.320;2022-10-31T14:55:00;19.30;;;5.68;;
21564;SDS011;10943;48.738;9.320;2022-10-31T14:57:34;12.60;;;4.40;;
21564;SDS011;10943;48.738;9.320;2022-10-31T15:00:17;12.75;;;5.38;;
21564;SDS011;10943;48.738;9.320;2022-10-31T15:03:10;12.20;;;4.93;;
21564;SDS011;10943;48.738;9.320;2022-10-31T15:05:59;16.77;;;5.60;;
21564;SDS011;10943;48.738;9.320;2022-10-31T15:08:52;11.68;;;4.68;;
21564;SDS011;10943;48.738;9.320;2022-10-31T15:11:26;11.23;;;5.03;;
21564;SDS011;10943;48.738;9.320;2022-10-31T15:14:14;10.75;;;5.72;;
21564;SDS011;10943;48.738;9.320;2022-10-31T15:16:57;13.48;;;6.07;;
21564;SDS011;10943;48.738;9.320;2022-10-31T15:19:32;16.77;;;5.95;;
21564;SDS011;10943;48.738;9.320;2022-10-31T15:22:03;14.18;;;5.63;;
21564;SDS011;10943;48.738;9.320;2022-10-31T15:24:44;13.38;;;5.32;;
21564;SDS011;10943;48.738;9.320;2022-10-31T15:27:19;13.07;;;5.68;;
21564;SDS011;10943;48.738;9.320;2022-10-31T15:29:50;14.57;;;5.75;;
21564;SDS011;10943;48.738;9.320;2022-10-31T15:34:55;17.35;;;7.10;;
21564;SDS011;10943;48.738;9.320;2022-10-31T15:37:24;14.52;;;5.60;;
21564;SDS011;10943;48.738;9.320;2022-10-31T15:39:53;15.35;;;8.18;;
21564;SDS011;10943;48.738;9.320;2022-10-31T15:42:27;16.92;;;6.22;;
21564;SDS011;10943;48.738;9.320;2022-10-31T15:47:44;14.50;;;6.50;;
21564;SDS011;10943;48.738;9.320;2022-10-31T15:50:25;11.00;;;4.90;;
21564;SDS011;10943;48.738;9.320;2022-10-31T15:53:31;13.20;;;6.90;;
21564;SDS011;10943;48.738;9.320;2022-10-31T15:56:21;14.27;;;7.90;;
21564;SDS011;10943;48.738;9.320;2022-10-31T15:58:56;16.23;;;8.02;;
21564;SDS011;10943;48.738;9.320;2022-10-31T16:01:30;13.45;;;7.50;;
21564;SDS011;10943;48.738;9.320;2022-10-31T16:06:39;20.42;;;7.68;;
21564;SDS011;10943;48.738;9.320;2022-10-31T16:09:23;18.25;;;8.88;;
21564;SDS011;10943;48.738;9.320;2022-10-31T16:11:50;24.13;;;12.82;;
21564;SDS011;10943;48.738;9.320;2022-10-31T16:14:19;19.58;;;10.90;;
21564;SDS011;10943;48.738;9.320;2022-10-31T16:16:56;20.75;;;10.10;;
21564;SDS011;10943;48.738;9.320;2022-10-31T16:22:05;20.25;;;11.68;;
21564;SDS011;10943;48.738;9.320;2022-10-31T16:27:49;21.85;;;9.07;;
21564;SDS011;10943;48.738;9.320;2022-10-31T16:33:26;21.35;;;11.70;;
21564;SDS011;10943;48.738;9.320;2022-10-31T16:39:02;17.45;;;9.90;;
21564;SDS011;10943;48.738;9.320;2022-10-31T16:41:30;22.63;;;12.52;;
21564;SDS011;10943;48.738;9.320;2022-10-31T16:44:32;22.38;;;12.65;;
21564;SDS011;10943;48.738;9.320;2022-10-31T16:49:42;18.60;;;10.47;;
21564;SDS011;10943;48.738;9.320;2022-10-31T16:52:14;21.17;;;11.55;;
21564;SDS011;10943;48.738;9.320;2022-10-31T16:54:43;20.92;;;12.48;;
21564;SDS011;10943;48.738;9.320;2022-10-31T16:57:13;23.77;;;12.82;;
21564;SDS011;10943;48.738;9.320;2022-10-31T16:59:46;23.95;;;12.60;;
21564;SDS011;10943;48.738;9.320;2022-10-31T17:02:22;20.92;;;11.70;;
21564;SDS011;10943;48.738;9.320;2022-10-31T17:04:50;21.35;;;11.18;;
21564;SDS011;10943;48.738;9.320;2022-10-31T17:07:22;21.95;;;11.55;;
21564;SDS011;10943;48.738;9.320;2022-10-31T17:09:49;21.65;;;12.25;;
21564;SDS011;10943;48.738;9.320;2022-10-31T17:12:18;22.52;;;10.70;;
21564;SDS011;10943;48.738;9.320;2022-10-31T17:14:49;18.77;;;9.07;;
21564;SDS011;10943;48.738;9.320;2022-10-31T17:17:18;16.05;;;8.60;;
21564;SDS011;10943;48.738;9.320;2022-10-31T17:19:45;16.13;;;9.43;;
21564;SDS011;10943;48.738;9.320;2022-10-31T17:22:12;19.30;;;9.45;;
21564;SDS011;10943;48.738;9.320;2022-10-31T17:24:41;18.73;;;9.85;;
21564;SDS011;10943;48.738;9.320;2022-10-31T17:27:08;18.25;;;9.23;;
21564;SDS011;10943;48.738;9.320;2022-10-31T17:29:36;18.08;;;9.02;;
21564;SDS011;10943;48.738;9.320;2022-10-31T17:32:04;23.67;;;11.80;;
21564;SDS011;10943;48.738;9.320;2022-10-31T17:34:32;22.48;;;13.05;;
21564;SDS011;10943;48.738;9.320;2022-10-31T17:36:59;24.23;;;13.98;;
21564;SDS011;10943;48.738;9.320;2022-10-31T17:39:27;29.70;;;15.80;;
21564;SDS011;10943;48.738;9.320;2022-10-31T17:41:55;29.25;;;13.93;;
21564;SDS011;10943;48.738;9.320;2022-10-31T17:44:22;22.83;;;12.55;;
21564;SDS011;10943;48.738;9.320;2022-10-31T17:46:49;26.23;;;12.48;;
21564;SDS011;10943;48.738;9.320;2022-10-31T17:49:19;22.80;;;12.82;;
21564;SDS011;10943;48.738;9.320;2022-10-31T17:51:49;20.67;;;12.40;;
21564;SDS011;10943;48.738;9.320;2022-10-31T17:54:17;26.05;;;12.75;;
21564;SDS011;10943;48.738;9.320;2022-10-31T17:56:48;24.50;;;12.75;;
21564;SDS011;10943;48.738;9.320;2022-10-31T17:59:15;25.85;;;13.50;;
21564;SDS011;10943;48.738;9.320;2022-10-31T18:01:43;22.20;;;12.02;;
21564;SDS011;10943;48.738;9.320;2022-10-31T18:04:10;18.27;;;11.30;;
21564;SDS011;10943;48.738;9.320;2022-10-31T18:06:38;18.17;;;11.90;;
21564;SDS011;10943;48.738;9.320;2022-10-31T18:09:05;20.85;;;12.98;;
21564;SDS011;10943;48.738;9.320;2022-10-31T18:11:33;18.08;;;11.05;;
21564;SDS011;10943;48.738;9.320;2022-10-31T18:14:02;19.83;;;12.02;;
21564;SDS011;10943;48.738;9.320;2022-10-31T18:16:29;23.17;;;12.82;;
21564;SDS011;10943;48.738;9.320;2022-10-31T18:18:57;21.17;;;12.68;;
21564;SDS011;10943;48.738;9.320;2022-10-31T18:21:26;21.73;;;12.13;;
21564;SDS011;10943;48.738;9.320;2022-10-31T18:23:55;27.77;;;14.02;;